Carly Michelle — WDF5185 — position and weather

sailwx.info

Track history (hours):
 
Tides and Currents Weather Stations Pressure Air Temp Water Temp Dewpoint Dewpoint Depression Visibility Wind Speed Wind Dir Waves Ship Positions

Carly Michelle

Owner: Gulf South Ocean Towing, LLC, Cut Off, LA. More information available from US FCC via Universal Licensing System and Coast Guard Vessel Documentation Center.

Last reported at 2017-Sep-28 20:56 UTC. Time now 2017-Oct-18 02:01 UTC.
Position N 29°30' W 094°52'.
Warning: this ship's position is 19 days out of date.

Length 34 m; draft 4.2 m.

Type: Towing. MMSI: 367460370.

Date/timePositionNaut miles runAvg speedWind from/ knotsBaromVisibWave heightAir tempDewpointWater temp
2017-Sep-28 20:56N 29°30' W 094°52'410.0
2017-Sep-28 20:29N 29°33' W 094°55'5 9.4
2017-Sep-28 20:00N 29°37' W 094°58'5 9.8
2017-Sep-28 19:30N 29°42' W 094°60'5 7.5
2017-Sep-28 18:54N 29°45' W 095°04'3 4.8
2017-Sep-28 18:21N 29°43' W 095°01'2 5.8
2017-Sep-28 17:59N 29°42' W 094°60'4 7.5
2017-Sep-28 17:30N 29°38' W 094°58'85 6.2
2017-Sep-28 03:50N 29°46' W 093°21'1 2.4
2017-Sep-28 03:30N 29°46' W 093°21'0 0.0
2017-Sep-28 03:00N 29°46' W 093°21'2 4.0
2017-Sep-28 02:30N 29°48' W 093°21'4 7.3
2017-Sep-28 02:00N 29°52' W 093°21'4 8.5
2017-Sep-28 01:30N 29°56' W 093°20'4 8.9
2017-Sep-28 01:00N 30°01' W 093°20'5 9.1
2017-Sep-28 00:30N 30°05' W 093°20'3 5.8
2017-Sep-28 00:00N 30°08' W 093°19'0 0.0
2017-Sep-27 23:30N 30°08' W 093°19'0 0.0
2017-Sep-27 23:00N 30°08' W 093°19'0 0.0
2017-Sep-27 22:30N 30°08' W 093°19'0 0.0
2017-Sep-27 22:00N 30°08' W 093°19'0 0.0
2017-Sep-27 21:30N 30°08' W 093°19'0 0.0
2017-Sep-27 21:00N 30°08' W 093°19'0 0.0
2017-Sep-27 20:30N 30°08' W 093°19'0 0.0
2017-Sep-27 20:00N 30°08' W 093°19'0 0.0
2017-Sep-27 19:30N 30°08' W 093°19'0 0.0
2017-Sep-27 19:00N 30°08' W 093°19'0 0.0
2017-Sep-27 18:30N 30°08' W 093°19'0 0.0
2017-Sep-27 18:00N 30°08' W 093°19'0 0.0
2017-Sep-27 17:30N 30°08' W 093°19'0 0.0
2017-Sep-27 17:00N 30°08' W 093°19'0 0.0
2017-Sep-27 16:30N 30°08' W 093°19'0 0.0
2017-Sep-27 16:00N 30°08' W 093°19'0 0.0
2017-Sep-27 15:30N 30°08' W 093°19'0 0.0
2017-Sep-27 15:00N 30°08' W 093°19'0 0.0
2017-Sep-27 14:30N 30°08' W 093°19'0 0.4
2017-Sep-27 14:00N 30°08' W 093°19'0 0.0
2017-Sep-27 13:30N 30°08' W 093°19'0 0.0
2017-Sep-27 13:00N 30°08' W 093°19'0 0.0
2017-Sep-27 12:30N 30°08' W 093°19'0 0.0
2017-Sep-27 12:00N 30°08' W 093°19'0 0.0
2017-Sep-27 11:30N 30°08' W 093°19'0 0.0
2017-Sep-27 11:00N 30°08' W 093°19'1 1.7
2017-Sep-27 10:30N 30°07' W 093°20'2 4.1
2017-Sep-27 10:00N 30°05' W 093°20'2 4.6
2017-Sep-27 09:30N 30°03' W 093°20'2 4.9
2017-Sep-27 09:00N 30°01' W 093°20'3 5.0
2017-Sep-27 08:30N 29°58' W 093°20'2 4.8
2017-Sep-27 08:00N 29°56' W 093°20'2 4.9
2017-Sep-27 07:30N 29°53' W 093°21'83 2.7
2017-Sep-26 01:07N 29°30' W 094°52'1 7.7
2017-Sep-26 01:00N 29°30' W 094°53'4 7.7
2017-Sep-26 00:30N 29°34' W 094°55'4 8.0
2017-Sep-26 00:00N 29°37' W 094°57'4 8.3
2017-Sep-25 23:30N 29°41' W 094°59'4 7.5
2017-Sep-25 23:00N 29°44' W 095°02'4 1.0
2017-Sep-25 19:19N 29°47' W 095°05'0 0.2
2017-Sep-25 16:37N 29°46' W 095°05'0 0.3
2017-Sep-25 16:21N 29°46' W 095°05'2 4.9
2017-Sep-25 16:00N 29°45' W 095°04'3 6.1
2017-Sep-25 15:30N 29°43' W 095°01'3 6.5
2017-Sep-25 15:00N 29°40' W 094°59'4 7.0
2017-Sep-25 14:30N 29°37' W 094°57'  
2017-Sep-21 01:54N 29°32' W 094°54'3 7.0
2017-Sep-21 01:30N 29°34' W 094°56'3 7.0
2017-Sep-21 01:01N 29°37' W 094°58'4 7.2
2017-Sep-21 00:29N 29°41' W 094°59'4 5.6
2017-Sep-20 23:42N 29°44' W 095°03'3 0.4
2017-Sep-20 15:36N 29°46' W 095°05'1 2.1
2017-Sep-20 15:13N 29°46' W 095°04'2 6.9
2017-Sep-20 14:58N 29°44' W 095°03'6 6.0
2017-Sep-20 14:01N 29°40' W 094°58'4 7.3
2017-Sep-20 13:31N 29°36' W 094°57'  
Track history (hours):
 
Tides and Currents Weather Stations Pressure Air Temp Water Temp Dewpoint Dewpoint Depression Visibility Wind Speed Wind Dir Waves Ship Positions

Carly Michelle

Owner: Gulf South Ocean Towing, LLC, Cut Off, LA. More information available from US FCC via Universal Licensing System and Coast Guard Vessel Documentation Center.

Last reported at 2017-Sep-28 20:56 UTC. Time now 2017-Oct-18 02:01 UTC.
Position N 29°30' W 094°52'.
Warning: this ship's position is 19 days out of date.

Length 34 m; draft 4.2 m.

Type: Towing. MMSI: 367460370.

Date/timePositionNaut miles runAvg speedWind from/ knotsBaromVisibWave heightAir tempDewpointWater temp
2017-Sep-28 20:56N 29°30' W 094°52'410.0
2017-Sep-28 20:29N 29°33' W 094°55'5 9.4
2017-Sep-28 20:00N 29°37' W 094°58'5 9.8
2017-Sep-28 19:30N 29°42' W 094°60'5 7.5
2017-Sep-28 18:54N 29°45' W 095°04'3 4.8
2017-Sep-28 18:21N 29°43' W 095°01'2 5.8
2017-Sep-28 17:59N 29°42' W 094°60'4 7.5
2017-Sep-28 17:30N 29°38' W 094°58'85 6.2
2017-Sep-28 03:50N 29°46' W 093°21'1 2.4
2017-Sep-28 03:30N 29°46' W 093°21'0 0.0
2017-Sep-28 03:00N 29°46' W 093°21'2 4.0
2017-Sep-28 02:30N 29°48' W 093°21'4 7.3
2017-Sep-28 02:00N 29°52' W 093°21'4 8.5
2017-Sep-28 01:30N 29°56' W 093°20'4 8.9
2017-Sep-28 01:00N 30°01' W 093°20'5 9.1
2017-Sep-28 00:30N 30°05' W 093°20'3 5.8
2017-Sep-28 00:00N 30°08' W 093°19'0 0.0
2017-Sep-27 23:30N 30°08' W 093°19'0 0.0
2017-Sep-27 23:00N 30°08' W 093°19'0 0.0
2017-Sep-27 22:30N 30°08' W 093°19'0 0.0
2017-Sep-27 22:00N 30°08' W 093°19'0 0.0
2017-Sep-27 21:30N 30°08' W 093°19'0 0.0
2017-Sep-27 21:00N 30°08' W 093°19'0 0.0
2017-Sep-27 20:30N 30°08' W 093°19'0 0.0
2017-Sep-27 20:00N 30°08' W 093°19'0 0.0
2017-Sep-27 19:30N 30°08' W 093°19'0 0.0
2017-Sep-27 19:00N 30°08' W 093°19'0 0.0
2017-Sep-27 18:30N 30°08' W 093°19'0 0.0
2017-Sep-27 18:00N 30°08' W 093°19'0 0.0
2017-Sep-27 17:30N 30°08' W 093°19'0 0.0
2017-Sep-27 17:00N 30°08' W 093°19'0 0.0
2017-Sep-27 16:30N 30°08' W 093°19'0 0.0
2017-Sep-27 16:00N 30°08' W 093°19'0 0.0
2017-Sep-27 15:30N 30°08' W 093°19'0 0.0
2017-Sep-27 15:00N 30°08' W 093°19'0 0.0
2017-Sep-27 14:30N 30°08' W 093°19'0 0.4
2017-Sep-27 14:00N 30°08' W 093°19'0 0.0
2017-Sep-27 13:30N 30°08' W 093°19'0 0.0
2017-Sep-27 13:00N 30°08' W 093°19'0 0.0
2017-Sep-27 12:30N 30°08' W 093°19'0 0.0
2017-Sep-27 12:00N 30°08' W 093°19'0 0.0
2017-Sep-27 11:30N 30°08' W 093°19'0 0.0
2017-Sep-27 11:00N 30°08' W 093°19'1 1.7
2017-Sep-27 10:30N 30°07' W 093°20'2 4.1
2017-Sep-27 10:00N 30°05' W 093°20'2 4.6
2017-Sep-27 09:30N 30°03' W 093°20'2 4.9
2017-Sep-27 09:00N 30°01' W 093°20'3 5.0
2017-Sep-27 08:30N 29°58' W 093°20'2 4.8
2017-Sep-27 08:00N 29°56' W 093°20'2 4.9
2017-Sep-27 07:30N 29°53' W 093°21'83 2.7
2017-Sep-26 01:07N 29°30' W 094°52'1 7.7
2017-Sep-26 01:00N 29°30' W 094°53'4 7.7
2017-Sep-26 00:30N 29°34' W 094°55'4 8.0
2017-Sep-26 00:00N 29°37' W 094°57'4 8.3
2017-Sep-25 23:30N 29°41' W 094°59'4 7.5
2017-Sep-25 23:00N 29°44' W 095°02'4 1.0
2017-Sep-25 19:19N 29°47' W 095°05'0 0.2
2017-Sep-25 16:37N 29°46' W 095°05'0 0.3
2017-Sep-25 16:21N 29°46' W 095°05'2 4.9
2017-Sep-25 16:00N 29°45' W 095°04'3 6.1
2017-Sep-25 15:30N 29°43' W 095°01'3 6.5
2017-Sep-25 15:00N 29°40' W 094°59'4 7.0
2017-Sep-25 14:30N 29°37' W 094°57'  
2017-Sep-21 01:54N 29°32' W 094°54'3 7.0
2017-Sep-21 01:30N 29°34' W 094°56'3 7.0
2017-Sep-21 01:01N 29°37' W 094°58'4 7.2
2017-Sep-21 00:29N 29°41' W 094°59'4 5.6
2017-Sep-20 23:42N 29°44' W 095°03'3 0.4
2017-Sep-20 15:36N 29°46' W 095°05'1 2.1
2017-Sep-20 15:13N 29°46' W 095°04'2 6.9
2017-Sep-20 14:58N 29°44' W 095°03'6 6.0
2017-Sep-20 14:01N 29°40' W 094°58'4 7.3
2017-Sep-20 13:31N 29°36' W 094°57'  

Dump ship's entire track history